Hovedside
METAR-TAF:

METAR-TAF

Lufthavner :

Tromsø lufthavn. Langnes

Tromsø, Norge

breddegrad: 69-41N, lengdegrad: 018-55E, høyde over havet: 1 m

Gjeldene værobservasjon

Denne rapporten ble laget for 37 minutter siden, klokken 04:20 UTC
Vind 5 kt fra Øst-nordøst, skiftende mellom Nord-nordøst og Øst
Temperatur 8°C
Luftfuktighet 87%
Trykk 999 hPa
Sikt 10 km eller mer
Brutte skyer i en høyde av 1700 ft

METAR: ENTC 210420Z 06005KT 020V090 9999 BKN017 08/06 Q0999 RMK WIND 2600FT 31023KT

Tid: 06:57 (04:57 UTC)

Varsel

Varsel gyldig fra 21. klokken 00 UTC til 21. klokken 24 UTC
Vind 5 kt fra Sørvest
Sikt 10 km eller mer
Få skyer i en høyde av 500 ft
Spredte skyer i en høyde av 1500 ft
Brutte skyer i en høyde av 3000 ft
lett regn
Sannsynlighet 40%
fra 21. klokken 00 UTC til 21. klokken 24 UTC
Sikt: 4000 m
Brutte skyer i en høyde av 800 ft
regn, duskregn

TAF: ENTC 2100/2124 23005KT 9999 -RA FEW005 SCT015 BKN030 PROB40 2100/2124 4000 RADZ BKN008

Værobservasjoner og værvarsel for over 4000 flyplasser (METAR- og TAF-rapporter).

Tilgjengelige stasjoner er representert av de røde og gule prikkene på kartet.

Hold musepekeren over prikken for å se navnet på stasjonen.

Klikk så for å se værobservasjoner og -varsler.

For å forandre kartet kan du klikke på den grønne knappen med svart kryss for å zoome inn, på den grønne knappen med strek for å zoome ut, eller på de grønne pilene for å se tilstøtende kart.


METAR-TAF: